aviador You're here:

LBGO Decoded Metar

GORNA ORECHOVICA in BULGARIA
Report Time2017-08-19 01:30:00
UTC Time2017-08-19 01:51:49
Flight Rules vfr VFR
Wind100° at 03 kt
W.Decomp.*RWY 09: 3.0 kt HW 0.3 kt RCW
W.Rank100° ranks 4
Current wind is below 100° avg. (5.1)
Visibility9999 m
Phenomena:N/A
Clouds:N/A
CeilingNone
Temp13°C (ISA -1)
Dew Point13°C (100% RH)
AAT12.9°C
QNH1016 hPa
Density Alt213 ft
Elevation285 ft
Report Wrong Elevation
Raw Report
METAR LBGO 190130Z AUTO 10003KT 070V130 9999 NCD 13/13 Q1016=

Extra information for LBGO:More info

Metar Taf Metar & Taf Last 4 Metars F.Rules Stats Wind Profile Meteogram Temp Stats Airport Information Weather charts Add Link Nearby VenuesMetar ALERT Operation Metar Decoded Social comments